Time;durP1;ratioP1;P1;durP2;ratioP2;P2;SDS_P1;SDS_P2;PMS_P1;PMS_P2;Temp;Humidity;BMP_temperature;BMP_pressure;BME280_temperature;BME280_humidity;BME280_pressure;Samples;Min_cycle;Max_cycle;Signal;HPM_P1;HPM_P2
2022/03/10 00:00:22;;;;;;;4.78;2.22;;;;;;;;;;5053678;28;20127;-69
2022/03/10 00:02:48;;;;;;;6.28;2.60;;;;;;;;;;5053915;28;20044;-69
2022/03/10 00:05:16;;;;;;;6.25;2.75;;;;;;;;;;5053556;28;20045;-69
2022/03/10 00:07:43;;;;;;;4.33;2.30;;;;;;;;;;5053455;28;20052;-69
2022/03/10 00:10:09;;;;;;;5.68;2.30;;;;;;;;;;5053553;28;20359;-69
2022/03/10 00:12:36;;;;;;;5.53;2.08;;;;;;;;;;5053770;28;20182;-69
2022/03/10 00:15:04;;;;;;;4.90;2.47;;;;;;;;;;5024884;28;20046;-69
2022/03/10 00:17:30;;;;;;;4.55;2.47;;;;;;;;;;5041731;28;20065;-69
2022/03/10 00:19:57;;;;;;;8.88;2.50;;;;;;;;;;5051784;28;20061;-69
2022/03/10 00:22:23;;;;;;;5.13;2.13;;;;;;;;;;5053237;28;20080;-69
2022/03/10 00:24:50;;;;;;;5.65;2.10;;;;;;;;;;5053526;28;20049;-69
2022/03/10 00:27:16;;;;;;;7.28;2.22;;;;;;;;;;5053285;28;20451;-69
2022/03/10 00:29:44;;;;;;;5.03;2.30;;;;;;;;;;5053359;28;20055;-69
2022/03/10 00:32:10;;;;;;;5.95;2.00;;;;;;;;;;5053078;28;20102;-69
2022/03/10 00:34:37;;;;;;;4.25;2.25;;;;;;;;;;5053150;28;20094;-69
2022/03/10 00:37:03;;;;;;;3.70;1.75;;;;;;;;;;5053290;28;20044;-69
2022/03/10 00:39:29;;;;;;;6.10;2.22;;;;;;;;;;5051780;28;20075;-69
2022/03/10 00:41:56;;;;;;;4.22;2.10;;;;;;;;;;5052906;28;20052;-69
2022/03/10 00:44:22;;;;;;;3.97;1.90;;;;;;;;;;5051539;28;20409;-69
2022/03/10 00:46:49;;;;;;;5.05;2.03;;;;;;;;;;5040284;28;20053;-69
2022/03/10 00:49:15;;;;;;;7.57;2.20;;;;;;;;;;5052611;28;20053;-69
2022/03/10 00:51:42;;;;;;;6.30;1.90;;;;;;;;;;5052542;28;20053;-69
2022/03/10 00:54:08;;;;;;;3.30;2.08;;;;;;;;;;5052794;28;20102;-69
2022/03/10 00:56:34;;;;;;;4.32;2.00;;;;;;;;;;5052534;28;20562;-69
2022/03/10 00:59:01;;;;;;;3.80;1.90;;;;;;;;;;5051292;28;20045;-69
2022/03/10 01:01:27;;;;;;;4.57;1.95;;;;;;;;;;5052749;28;20106;-69
2022/03/10 01:03:54;;;;;;;7.78;2.50;;;;;;;;;;5052378;28;20081;-69
2022/03/10 01:06:20;;;;;;;6.75;2.10;;;;;;;;;;5052134;28;20052;-69
2022/03/10 01:08:47;;;;;;;8.02;2.30;;;;;;;;;;5052588;28;20049;-69
2022/03/10 01:11:13;;;;;;;7.05;2.30;;;;;;;;;;5052596;28;20048;-69
2022/03/10 01:13:40;;;;;;;8.23;2.28;;;;;;;;;;5050977;28;20041;-69
2022/03/10 01:16:06;;;;;;;6.63;2.22;;;;;;;;;;5052531;28;20048;-69
2022/03/10 01:18:33;;;;;;;6.63;1.92;;;;;;;;;;5052454;28;20107;-69
2022/03/10 01:20:59;;;;;;;4.35;1.85;;;;;;;;;;5051530;28;20048;-69
2022/03/10 01:23:26;;;;;;;5.55;1.98;;;;;;;;;;5052195;28;20049;-69
2022/03/10 01:25:52;;;;;;;6.35;2.13;;;;;;;;;;5052198;28;20099;-69
2022/03/10 01:28:19;;;;;;;6.90;2.00;;;;;;;;;;5052022;28;20114;-69
2022/03/10 01:30:45;;;;;;;6.72;1.70;;;;;;;;;;5052083;28;20048;-69
2022/03/10 01:33:11;;;;;;;4.50;2.20;;;;;;;;;;5051866;28;20554;-69
2022/03/10 01:35:38;;;;;;;5.53;2.38;;;;;;;;;;5051786;28;20080;-70
2022/03/10 01:38:04;;;;;;;6.30;2.50;;;;;;;;;;5051535;28;20122;-69
2022/03/10 01:40:33;;;;;;;6.05;2.20;;;;;;;;;;5051821;28;20543;-70
2022/03/10 01:42:59;;;;;;;6.28;2.08;;;;;;;;;;5051728;28;20048;-69
2022/03/10 01:45:26;;;;;;;5.03;2.08;;;;;;;;;;5051649;28;20053;-69
2022/03/10 01:47:52;;;;;;;8.65;2.40;;;;;;;;;;5051994;28;20049;-69
2022/03/10 01:50:19;;;;;;;6.95;2.40;;;;;;;;;;5051495;28;20577;-69
2022/03/10 01:52:47;;;;;;;6.22;2.30;;;;;;;;;;5051620;28;20094;-69
2022/03/10 01:55:13;;;;;;;5.55;2.25;;;;;;;;;;5051919;28;20051;-69
2022/03/10 01:57:43;;;;;;;4.90;2.15;;;;;;;;;;5051859;28;20053;-69
2022/03/10 02:00:11;;;;;;;4.95;2.47;;;;;;;;;;5051850;28;20045;-69
2022/03/10 02:02:37;;;;;;;4.45;2.40;;;;;;;;;;5051558;28;20056;-69
2022/03/10 02:05:04;;;;;;;6.55;2.55;;;;;;;;;;5051467;28;20053;-69
2022/03/10 02:10:18;;;;;;;4.40;1.80;;;;;;;;;;5051565;28;20045;-69
2022/03/10 02:12:45;;;;;;;5.93;2.15;;;;;;;;;;5040467;28;20045;-69
2022/03/10 02:17:58;;;;;;;4.47;2.13;;;;;;;;;;5051515;28;20489;-69
2022/03/10 02:20:24;;;;;;;5.80;2.25;;;;;;;;;;5049630;28;20053;-69
2022/03/10 02:22:51;;;;;;;4.50;1.90;;;;;;;;;;5051307;28;20106;-69
2022/03/10 02:25:19;;;;;;;6.38;2.33;;;;;;;;;;5051506;28;20459;-69
2022/03/10 02:27:52;;;;;;;5.00;1.77;;;;;;;;;;5051301;28;20566;-69
2022/03/10 02:30:20;;;;;;;4.95;2.25;;;;;;;;;;5051192;28;20049;-69
2022/03/10 02:32:47;;;;;;;4.15;2.08;;;;;;;;;;5050240;28;20045;-69
2022/03/10 02:35:13;;;;;;;6.10;2.07;;;;;;;;;;5051304;28;20046;-69
2022/03/10 02:37:40;;;;;;;3.65;1.90;;;;;;;;;;5051044;28;20289;-70
2022/03/10 02:40:07;;;;;;;6.25;1.95;;;;;;;;;;5051378;28;20045;-70
2022/03/10 02:42:34;;;;;;;6.93;2.23;;;;;;;;;;5051298;28;20122;-70
2022/03/10 02:45:01;;;;;;;6.77;2.10;;;;;;;;;;5051776;28;20175;-70
2022/03/10 02:47:28;;;;;;;5.00;1.90;;;;;;;;;;5051133;28;20654;-70
2022/03/10 02:49:54;;;;;;;6.90;2.10;;;;;;;;;;5053958;28;20099;-69
2022/03/10 02:52:21;;;;;;;5.47;1.90;;;;;;;;;;5055224;28;20084;-69
2022/03/10 02:54:48;;;;;;;3.78;2.20;;;;;;;;;;5055214;28;20146;-69
2022/03/10 02:57:15;;;;;;;6.70;1.90;;;;;;;;;;5055153;28;20404;-69
2022/03/10 02:59:42;;;;;;;3.75;1.85;;;;;;;;;;5048064;28;20041;-69
2022/03/10 03:02:08;;;;;;;3.97;1.70;;;;;;;;;;5054831;28;20045;-69
2022/03/10 03:04:35;;;;;;;3.00;2.00;;;;;;;;;;5055159;28;20102;-69
2022/03/10 03:07:03;;;;;;;4.78;2.22;;;;;;;;;;5054532;28;20107;-70
2022/03/10 03:09:29;;;;;;;6.00;2.20;;;;;;;;;;5054969;28;20106;-70
2022/03/10 03:11:56;;;;;;;6.18;2.10;;;;;;;;;;5054525;28;20048;-69
2022/03/10 03:14:23;;;;;;;3.63;2.28;;;;;;;;;;5054783;28;20103;-70
2022/03/10 03:16:50;;;;;;;6.80;3.47;;;;;;;;;;5054779;28;20045;-70
2022/03/10 03:19:17;;;;;;;5.38;2.50;;;;;;;;;;5054746;28;20451;-70
2022/03/10 03:21:45;;;;;;;5.90;2.53;;;;;;;;;;5048065;28;20049;-69
2022/03/10 03:24:12;;;;;;;4.80;3.05;;;;;;;;;;5054454;28;20049;-69
2022/03/10 03:26:38;;;;;;;5.65;2.80;;;;;;;;;;5054554;28;20095;-70
2022/03/10 03:29:04;;;;;;;7.68;2.95;;;;;;;;;;5054317;28;20056;-69
2022/03/10 03:31:31;;;;;;;6.70;2.97;;;;;;;;;;5054456;28;20103;-70
2022/03/10 03:33:57;;;;;;;4.70;3.00;;;;;;;;;;5054443;28;20174;-70
2022/03/10 03:36:24;;;;;;;5.35;3.05;;;;;;;;;;5054048;28;20090;-70
2022/03/10 03:38:51;;;;;;;4.72;2.80;;;;;;;;;;5054367;28;20094;-70
2022/03/10 03:41:17;;;;;;;4.93;2.97;;;;;;;;;;5054285;28;20099;-70
2022/03/10 03:43:44;;;;;;;5.60;2.75;;;;;;;;;;5054334;28;20057;-70
2022/03/10 03:46:10;;;;;;;5.95;2.63;;;;;;;;;;5054165;28;20057;-70
2022/03/10 03:48:37;;;;;;;7.63;2.97;;;;;;;;;;5054233;28;20048;-69
2022/03/10 03:51:03;;;;;;;5.70;3.20;;;;;;;;;;5053826;28;20473;-69
2022/03/10 03:53:29;;;;;;;6.53;3.13;;;;;;;;;;5054051;28;20049;-69
2022/03/10 03:55:56;;;;;;;5.88;3.35;;;;;;;;;;5053963;28;20447;-69
2022/03/10 03:58:22;;;;;;;5.65;3.42;;;;;;;;;;5053672;28;20045;-69
2022/03/10 04:00:49;;;;;;;8.20;3.05;;;;;;;;;;5053365;28;20467;-70
2022/03/10 04:03:15;;;;;;;5.15;3.17;;;;;;;;;;5053941;28;20152;-69
2022/03/10 04:05:42;;;;;;;9.60;3.30;;;;;;;;;;5053425;28;20136;-70
2022/03/10 04:08:09;;;;;;;7.47;3.15;;;;;;;;;;5053534;28;20099;-70
2022/03/10 04:10:36;;;;;;;6.82;3.47;;;;;;;;;;5053314;28;20086;-70
2022/03/10 04:13:03;;;;;;;;;;;;;;;;;;5054259;28;20123;-70
2022/03/10 04:15:30;;;;;;;6.82;3.33;;;;;;;;;;5053348;28;19994;-70
2022/03/10 04:17:57;;;;;;;6.13;3.42;;;;;;;;;;5053426;28;20048;-70
2022/03/10 04:20:24;;;;;;;7.80;3.28;;;;;;;;;;5049685;28;20053;-69
2022/03/10 04:22:50;;;;;;;7.15;2.83;;;;;;;;;;5053533;28;20053;-70
2022/03/10 04:25:18;;;;;;;7.35;3.50;;;;;;;;;;5053595;28;20119;-70
2022/03/10 04:27:44;;;;;;;10.43;3.10;;;;;;;;;;5053061;28;20090;-70
2022/03/10 04:30:11;;;;;;;5.60;3.10;;;;;;;;;;5053075;28;20084;-69
2022/03/10 04:32:45;;;;;;;6.17;3.07;;;;;;;;;;5051846;28;20610;-69
2022/03/10 04:35:14;;;;;;;8.23;3.42;;;;;;;;;;5053052;28;20048;-69
2022/03/10 04:37:40;;;;;;;8.98;3.13;;;;;;;;;;5053064;28;20057;-69
2022/03/10 04:40:08;;;;;;;7.00;3.30;;;;;;;;;;5052045;28;20111;-70
2022/03/10 04:42:35;;;;;;;5.38;2.83;;;;;;;;;;5052831;28;20471;-70
2022/03/10 04:45:02;;;;;;;5.20;2.70;;;;;;;;;;5052917;28;20087;-70
2022/03/10 04:47:28;;;;;;;6.40;3.10;;;;;;;;;;5053081;28;20119;-70
2022/03/10 04:49:56;;;;;;;7.97;2.90;;;;;;;;;;5052666;28;20045;-70
2022/03/10 04:52:28;;;;;;;7.07;3.33;;;;;;;;;;5052632;28;20045;-70
2022/03/10 04:54:55;;;;;;;7.20;3.47;;;;;;;;;;5052861;28;20098;-70
2022/03/10 04:57:21;;;;;;;5.75;3.00;;;;;;;;;;5052626;28;20452;-70
2022/03/10 04:59:48;;;;;;;6.90;2.97;;;;;;;;;;5052517;28;20068;-70
2022/03/10 05:02:15;;;;;;;5.40;2.67;;;;;;;;;;5052476;28;20074;-70
2022/03/10 05:04:41;;;;;;;4.32;2.72;;;;;;;;;;5051391;28;20048;-70
2022/03/10 05:07:08;;;;;;;7.47;3.45;;;;;;;;;;5052271;28;20048;-70
2022/03/10 05:09:34;;;;;;;7.82;2.95;;;;;;;;;;5052363;28;20102;-70
2022/03/10 05:12:01;;;;;;;5.45;2.92;;;;;;;;;;5019839;28;20103;-69
2022/03/10 05:14:27;;;;;;;6.10;3.15;;;;;;;;;;5052474;28;20452;-70
2022/03/10 05:16:53;;;;;;;7.00;2.83;;;;;;;;;;5052156;28;20049;-68
2022/03/10 05:19:20;;;;;;;6.05;2.80;;;;;;;;;;5052254;28;20048;-69
2022/03/10 05:21:46;;;;;;;5.72;2.95;;;;;;;;;;5047391;28;20106;-69
2022/03/10 05:24:13;;;;;;;9.27;3.35;;;;;;;;;;5052043;28;20056;-69
2022/03/10 05:26:39;;;;;;;5.25;2.60;;;;;;;;;;5052069;28;20057;-70
2022/03/10 05:29:06;;;;;;;6.47;2.80;;;;;;;;;;5052360;28;20052;-70
2022/03/10 05:31:32;;;;;;;6.05;3.10;;;;;;;;;;5052073;28;20107;-69
2022/03/10 05:33:59;;;;;;;5.55;2.67;;;;;;;;;;5051928;28;20045;-70
2022/03/10 05:36:25;;;;;;;7.80;2.95;;;;;;;;;;5052167;28;20044;-70
2022/03/10 05:38:52;;;;;;;8.40;3.25;;;;;;;;;;5051812;28;20053;-70
2022/03/10 05:41:20;;;;;;;8.18;2.58;;;;;;;;;;5052081;28;20136;-69
2022/03/10 05:43:47;;;;;;;7.43;2.75;;;;;;;;;;5052142;28;20049;-69
2022/03/10 05:46:13;;;;;;;5.68;2.40;;;;;;;;;;5051668;28;20045;-70
2022/03/10 05:48:42;;;;;;;7.47;2.55;;;;;;;;;;5052009;28;20053;-69
2022/03/10 05:51:09;;;;;;;6.30;2.60;;;;;;;;;;5051444;28;20102;-70
2022/03/10 05:53:35;;;;;;;7.07;3.00;;;;;;;;;;5051953;28;20044;-70
2022/03/10 05:56:02;;;;;;;6.78;2.60;;;;;;;;;;5051574;28;20110;-70
2022/03/10 05:58:28;;;;;;;6.45;2.20;;;;;;;;;;5051924;28;20048;-70
2022/03/10 06:00:55;;;;;;;12.05;2.65;;;;;;;;;;5051565;28;20098;-69
2022/03/10 06:03:21;;;;;;;6.47;1.98;;;;;;;;;;5051738;28;20124;-69
2022/03/10 06:05:48;;;;;;;6.47;2.88;;;;;;;;;;5051697;28;20057;-69
2022/03/10 06:08:14;;;;;;;8.10;2.00;;;;;;;;;;5051765;28;20448;-69
2022/03/10 06:10:41;;;;;;;7.50;2.33;;;;;;;;;;5051353;28;20048;-69
2022/03/10 06:13:07;;;;;;;7.20;1.90;;;;;;;;;;5051506;28;20045;-69
2022/03/10 06:15:34;;;;;;;12.75;2.00;;;;;;;;;;5051682;28;20045;-69
2022/03/10 06:18:00;;;;;;;7.35;1.80;;;;;;;;;;5051454;28;20052;-69
2022/03/10 06:20:30;;;;;;;6.63;1.92;;;;;;;;;;5047407;28;20544;-69
2022/03/10 06:22:57;;;;;;;7.63;2.10;;;;;;;;;;5053013;28;20060;-69
2022/03/10 06:25:23;;;;;;;5.70;2.27;;;;;;;;;;5055611;28;20099;-69
2022/03/10 06:27:50;;;;;;;8.02;2.30;;;;;;;;;;5055784;28;20041;-69
2022/03/10 06:30:17;;;;;;;5.47;2.35;;;;;;;;;;5055775;28;20045;-69
2022/03/10 06:32:43;;;;;;;6.23;2.03;;;;;;;;;;5055542;28;20099;-70
2022/03/10 06:35:10;;;;;;;7.13;2.35;;;;;;;;;;5055542;28;20277;-70
2022/03/10 06:37:42;;;;;;;5.75;2.28;;;;;;;;;;5055224;28;20033;-70
2022/03/10 06:40:11;;;;;;;7.03;1.95;;;;;;;;;;5055536;28;20045;-70
2022/03/10 06:42:38;;;;;;;8.10;1.93;;;;;;;;;;5055136;28;20056;-70
2022/03/10 06:45:05;;;;;;;7.38;2.00;;;;;;;;;;5055411;28;20198;-70
2022/03/10 06:47:37;;;;;;;8.95;2.55;;;;;;;;;;5040584;28;20053;-68
2022/03/10 06:50:06;;;;;;;5.38;1.77;;;;;;;;;;5045717;28;20053;-69
2022/03/10 06:52:32;;;;;;;5.82;2.38;;;;;;;;;;5055175;28;20060;-70
2022/03/10 06:54:59;;;;;;;7.60;2.08;;;;;;;;;;5053622;28;20064;-69
2022/03/10 06:57:25;;;;;;;7.93;2.25;;;;;;;;;;5055162;28;20127;-69
2022/03/10 06:59:52;;;;;;;6.25;2.42;;;;;;;;;;5054781;28;20040;-69
2022/03/10 07:02:18;;;;;;;6.72;1.80;;;;;;;;;;5054816;28;20045;-69
2022/03/10 07:04:45;;;;;;;6.50;1.65;;;;;;;;;;5054525;28;20048;-69
2022/03/10 07:07:11;;;;;;;5.47;1.67;;;;;;;;;;5054590;28;20106;-69
2022/03/10 07:09:38;;;;;;;8.10;2.08;;;;;;;;;;5054642;28;20102;-69
2022/03/10 07:12:04;;;;;;;3.17;1.38;;;;;;;;;;5054491;28;20551;-69
2022/03/10 07:14:31;;;;;;;4.30;1.58;;;;;;;;;;5037228;28;20505;-69
2022/03/10 07:16:57;;;;;;;4.43;1.70;;;;;;;;;;5043579;28;20045;-69
2022/03/10 07:19:24;;;;;;;4.93;1.70;;;;;;;;;;5034279;28;20041;-69
2022/03/10 07:21:52;;;;;;;9.07;1.55;;;;;;;;;;5034147;28;20057;-71
2022/03/10 07:24:19;;;;;;;6.03;1.42;;;;;;;;;;5043594;28;20111;-69
2022/03/10 07:26:45;;;;;;;5.90;1.50;;;;;;;;;;5039736;28;20111;-69
2022/03/10 07:29:12;;;;;;;5.60;1.05;;;;;;;;;;5038775;28;20493;-68
2022/03/10 07:31:38;;;;;;;4.40;0.98;;;;;;;;;;5052891;28;20041;-68
2022/03/10 07:34:05;;;;;;;4.38;2.25;;;;;;;;;;5053531;28;20045;-68
2022/03/10 07:36:32;;;;;;;4.38;1.25;;;;;;;;;;5054115;28;20539;-68
2022/03/10 07:38:58;;;;;;;7.55;1.58;;;;;;;;;;5054300;28;20099;-68
2022/03/10 07:41:25;;;;;;;6.00;1.45;;;;;;;;;;5054101;28;20045;-69
2022/03/10 07:43:52;;;;;;;6.03;1.38;;;;;;;;;;5054260;28;20094;-85
2022/03/10 07:46:22;;;;;;;6.47;1.58;;;;;;;;;;5043695;28;20084;-69
2022/03/10 07:48:52;;;;;;;7.15;1.70;;;;;;;;;;5048838;28;20099;-70
2022/03/10 07:51:19;;;;;;;5.97;1.58;;;;;;;;;;5052500;28;20100;-70
2022/03/10 07:53:45;;;;;;;6.03;1.55;;;;;;;;;;5053909;28;20041;-70
2022/03/10 07:56:12;;;;;;;5.18;1.25;;;;;;;;;;5053824;28;20040;-70
2022/03/10 07:58:38;;;;;;;3.95;1.15;;;;;;;;;;5054058;28;20111;-70
2022/03/10 08:01:05;;;;;;;4.22;1.35;;;;;;;;;;5054143;28;20435;-70
2022/03/10 08:03:31;;;;;;;4.10;0.80;;;;;;;;;;5053691;28;20041;-70
2022/03/10 08:05:58;;;;;;;5.43;0.70;;;;;;;;;;5053427;28;20103;-70
2022/03/10 08:08:24;;;;;;;4.50;1.08;;;;;;;;;;5053484;28;20049;-70
2022/03/10 08:10:51;;;;;;;4.72;0.55;;;;;;;;;;5053801;28;20107;-70
2022/03/10 08:13:19;;;;;;;2.67;0.50;;;;;;;;;;5053475;28;20378;-70
2022/03/10 08:15:45;;;;;;;2.80;0.38;;;;;;;;;;5053569;28;20477;-70
2022/03/10 08:18:12;;;;;;;1.52;0.55;;;;;;;;;;5042766;28;20077;-70
2022/03/10 08:20:39;;;;;;;3.30;0.35;;;;;;;;;;5046505;28;20481;-70
2022/03/10 08:23:06;;;;;;;2.53;0.50;;;;;;;;;;5053435;28;20103;-70
2022/03/10 08:25:32;;;;;;;3.58;0.50;;;;;;;;;;5051898;28;20049;-70
2022/03/10 08:27:59;;;;;;;2.67;0.60;;;;;;;;;;5051986;28;20045;-70
2022/03/10 08:30:25;;;;;;;2.63;0.60;;;;;;;;;;5053345;28;20053;-70
2022/03/10 08:32:52;;;;;;;4.70;0.77;;;;;;;;;;5053044;28;20473;-70
2022/03/10 08:35:18;;;;;;;3.05;0.50;;;;;;;;;;5053030;28;20493;-70
2022/03/10 08:37:45;;;;;;;2.25;0.38;;;;;;;;;;5053030;28;20451;-70
2022/03/10 08:40:15;;;;;;;1.55;0.20;;;;;;;;;;5052925;28;20049;-70
2022/03/10 08:42:51;;;;;;;2.85;0.55;;;;;;;;;;5051956;28;20477;-70
2022/03/10 08:45:18;;;;;;;5.35;0.73;;;;;;;;;;5052934;28;20115;-70
2022/03/10 08:47:45;;;;;;;2.28;0.30;;;;;;;;;;5052028;28;20500;-70
2022/03/10 08:50:19;;;;;;;1.65;0.20;;;;;;;;;;5053004;28;20057;-70
2022/03/10 08:52:46;;;;;;;4.25;0.43;;;;;;;;;;5052608;28;20056;-70
2022/03/10 08:55:12;;;;;;;2.05;0.40;;;;;;;;;;5052958;28;20086;-70
2022/03/10 08:57:39;;;;;;;4.45;0.40;;;;;;;;;;5052850;28;20045;-70
2022/03/10 09:00:07;;;;;;;2.95;0.50;;;;;;;;;;5052503;28;20075;-70
2022/03/10 09:02:34;;;;;;;5.53;0.52;;;;;;;;;;5052549;28;20555;-70
2022/03/10 09:05:00;;;;;;;2.25;0.32;;;;;;;;;;5052659;28;20052;-70
2022/03/10 09:07:27;;;;;;;1.55;0.30;;;;;;;;;;5052337;28;20057;-70
2022/03/10 09:09:54;;;;;;;2.17;0.70;;;;;;;;;;5052643;28;20053;-70
2022/03/10 09:12:20;;;;;;;3.75;0.40;;;;;;;;;;5052248;28;20492;-70
2022/03/10 09:14:47;;;;;;;2.30;0.35;;;;;;;;;;5052382;28;20044;-70
2022/03/10 09:17:16;;;;;;;2.15;0.32;;;;;;;;;;5052345;28;20119;-70
2022/03/10 09:19:42;;;;;;;2.53;0.43;;;;;;;;;;5052222;28;20056;-70
2022/03/10 09:22:09;;;;;;;3.60;0.60;;;;;;;;;;5048723;28;20053;-70
2022/03/10 09:24:36;;;;;;;2.95;0.38;;;;;;;;;;5052345;28;20056;-70
2022/03/10 09:27:02;;;;;;;1.60;0.40;;;;;;;;;;5052166;28;20098;-70
2022/03/10 09:29:30;;;;;;;2.20;0.40;;;;;;;;;;5052015;28;20102;-70
2022/03/10 09:31:56;;;;;;;2.90;0.32;;;;;;;;;;5052571;28;20053;-70
2022/03/10 09:34:23;;;;;;;1.65;0.63;;;;;;;;;;5052206;28;20044;-71
2022/03/10 09:36:49;;;;;;;0.97;0.20;;;;;;;;;;5052262;28;20091;-70
2022/03/10 09:39:18;;;;;;;1.97;0.33;;;;;;;;;;5051855;28;20325;-70
2022/03/10 09:41:45;;;;;;;1.70;0.35;;;;;;;;;;5052115;28;20049;-70
2022/03/10 09:44:13;;;;;;;1.10;0.20;;;;;;;;;;5051815;28;20574;-70
2022/03/10 09:46:40;;;;;;;3.03;0.50;;;;;;;;;;5052059;28;20114;-70
2022/03/10 09:49:06;;;;;;;2.40;0.50;;;;;;;;;;5051735;28;20417;-70
2022/03/10 09:51:35;;;;;;;1.90;0.40;;;;;;;;;;5051785;28;20386;-70
2022/03/10 09:54:02;;;;;;;2.90;0.33;;;;;;;;;;5051746;28;20049;-70
2022/03/10 09:56:28;;;;;;;3.03;0.60;;;;;;;;;;5051965;28;20274;-70
2022/03/10 09:58:55;;;;;;;1.90;0.20;;;;;;;;;;5051434;28;20049;-70
2022/03/10 10:01:21;;;;;;;2.53;0.50;;;;;;;;;;5051804;28;20052;-70
2022/03/10 10:03:48;;;;;;;1.65;0.40;;;;;;;;;;5051877;28;20052;-71
2022/03/10 10:06:14;;;;;;;4.70;0.80;;;;;;;;;;5051513;28;20539;-70
2022/03/10 10:08:42;;;;;;;3.03;0.80;;;;;;;;;;5051520;28;20371;-70
2022/03/10 10:11:12;;;;;;;3.22;0.80;;;;;;;;;;5051837;28;20052;-69
2022/03/10 10:13:40;;;;;;;2.45;0.50;;;;;;;;;;5051267;28;20049;-69
2022/03/10 10:16:07;;;;;;;2.15;0.70;;;;;;;;;;5051767;28;20461;-69
2022/03/10 10:18:35;;;;;;;2.97;0.60;;;;;;;;;;5051707;28;20057;-69
2022/03/10 10:21:12;;;;;;;5.10;0.50;;;;;;;;;;5047728;28;20072;-69
2022/03/10 10:23:40;;;;;;;3.38;0.45;;;;;;;;;;5051701;28;20110;-69
2022/03/10 10:26:07;;;;;;;2.00;0.52;;;;;;;;;;5051402;28;20048;-69
2022/03/10 10:28:35;;;;;;;2.13;0.55;;;;;;;;;;5051324;28;20057;-69
2022/03/10 10:31:03;;;;;;;4.13;0.60;;;;;;;;;;5051518;28;20056;-70
2022/03/10 10:33:29;;;;;;;;;;;;;;;;;;5051863;28;20099;-70
2022/03/10 10:36:14;;;;;;;3.00;0.50;;;;;;;;;;5051208;28;19929;-70
2022/03/10 10:38:41;;;;;;;1.92;0.40;;;;;;;;;;5051229;28;20706;-70
2022/03/10 10:41:22;;;;;;;1.73;0.50;;;;;;;;;;5051391;28;20045;-69
2022/03/10 10:43:52;;;;;;;3.13;0.50;;;;;;;;;;5051290;28;20072;-69
2022/03/10 10:46:30;;;;;;;4.60;0.40;;;;;;;;;;5051200;28;20049;-69
2022/03/10 10:48:58;;;;;;;1.75;0.47;;;;;;;;;;5051226;28;20056;-69
2022/03/10 10:51:31;;;;;;;2.17;0.30;;;;;;;;;;5050961;28;20049;-69
2022/03/10 10:53:59;;;;;;;1.15;0.52;;;;;;;;;;5051061;28;20045;-69
2022/03/10 10:56:29;;;;;;;3.10;0.70;;;;;;;;;;5051259;28;20045;-69
2022/03/10 10:58:55;;;;;;;1.90;0.32;;;;;;;;;;5051226;28;20122;-69
2022/03/10 11:01:35;;;;;;;3.08;0.70;;;;;;;;;;5050936;28;20102;-69
2022/03/10 11:04:03;;;;;;;2.88;0.47;;;;;;;;;;5051277;28;20136;-69
2022/03/10 11:06:30;;;;;;;1.88;0.40;;;;;;;;;;5050882;28;20455;-70
2022/03/10 11:08:57;;;;;;;1.77;0.30;;;;;;;;;;5050921;28;20451;-70
2022/03/10 11:11:24;;;;;;;2.00;0.20;;;;;;;;;;5055057;28;20053;-70
2022/03/10 11:13:50;;;;;;;1.93;0.30;;;;;;;;;;5054604;28;20693;-70
2022/03/10 11:16:17;;;;;;;1.83;0.30;;;;;;;;;;5054899;28;20049;-69
2022/03/10 11:18:49;;;;;;;2.28;0.40;;;;;;;;;;5054793;28;20335;-69
2022/03/10 11:21:22;;;;;;;2.13;0.68;;;;;;;;;;5050731;28;20049;-69
2022/03/10 11:23:56;;;;;;;2.08;0.30;;;;;;;;;;5054706;28;20052;-69
2022/03/10 11:26:28;;;;;;;1.40;0.10;;;;;;;;;;5054721;28;20061;-69
2022/03/10 11:28:55;;;;;;;1.48;0.30;;;;;;;;;;5054549;28;20103;-69
2022/03/10 11:31:23;;;;;;;2.00;0.38;;;;;;;;;;5054334;28;20095;-69
2022/03/10 11:33:50;;;;;;;2.05;0.40;;;;;;;;;;5054580;28;20053;-69
2022/03/10 11:36:21;;;;;;;1.00;0.20;;;;;;;;;;5054196;28;20049;-69
2022/03/10 11:38:50;;;;;;;1.08;0.30;;;;;;;;;;5054495;28;20045;-69
2022/03/10 11:41:17;;;;;;;1.52;0.30;;;;;;;;;;5054280;28;20045;-69
2022/03/10 11:43:53;;;;;;;1.38;0.70;;;;;;;;;;5054425;28;20053;-69
2022/03/10 11:46:24;;;;;;;3.23;0.40;;;;;;;;;;5052817;28;20049;-69
2022/03/10 11:49:07;;;;;;;3.72;0.25;;;;;;;;;;5053968;28;20290;-69
2022/03/10 11:51:52;;;;;;;2.15;0.20;;;;;;;;;;5054052;28;20459;-69
2022/03/10 11:54:24;;;;;;;3.05;0.32;;;;;;;;;;5054082;28;20053;-69
2022/03/10 11:56:50;;;;;;;3.15;0.40;;;;;;;;;;5053850;28;20497;-69
2022/03/10 11:59:18;;;;;;;2.90;0.38;;;;;;;;;;5054112;28;20044;-69
2022/03/10 12:01:45;;;;;;;2.45;0.20;;;;;;;;;;5053927;28;20394;-69
2022/03/10 12:04:17;;;;;;;0.88;0.30;;;;;;;;;;5052781;28;20049;-70
2022/03/10 12:07:02;;;;;;;3.47;0.30;;;;;;;;;;5053446;28;20056;-69
2022/03/10 12:09:30;;;;;;;1.83;0.28;;;;;;;;;;5053949;28;20386;-69
2022/03/10 12:12:12;;;;;;;0.68;0.25;;;;;;;;;;5053440;28;20417;-70
2022/03/10 12:15:18;;;;;;;0.98;0.20;;;;;;;;;;5053663;28;20128;-70
2022/03/10 12:17:45;;;;;;;2.85;0.60;;;;;;;;;;5053333;28;20493;-70
2022/03/10 12:20:34;;;;;;;1.25;0.20;;;;;;;;;;5050190;28;20509;-69
2022/03/10 12:23:10;;;;;;;2.88;0.70;;;;;;;;;;5035133;28;20045;-69
2022/03/10 12:25:41;;;;;;;1.45;0.32;;;;;;;;;;5053553;28;20056;-69
2022/03/10 12:28:08;;;;;;;1.27;0.28;;;;;;;;;;5053234;28;20052;-69
2022/03/10 12:30:39;;;;;;;3.67;0.57;;;;;;;;;;5053086;28;20481;-69
2022/03/10 12:33:05;;;;;;;1.42;0.32;;;;;;;;;;5052175;28;20048;-69
2022/03/10 12:35:33;;;;;;;1.88;0.40;;;;;;;;;;5053617;28;20450;-69
2022/03/10 12:37:59;;;;;;;1.58;0.20;;;;;;;;;;5053022;28;20182;-69
2022/03/10 12:40:27;;;;;;;6.38;0.70;;;;;;;;;;5053023;28;20076;-69
2022/03/10 12:43:00;;;;;;;0.28;0.20;;;;;;;;;;5053215;28;20079;-69
2022/03/10 12:45:27;;;;;;;1.50;0.20;;;;;;;;;;5053242;28;20079;-69
2022/03/10 12:48:05;;;;;;;2.40;0.20;;;;;;;;;;5052836;28;20052;-69
2022/03/10 12:50:32;;;;;;;1.05;0.32;;;;;;;;;;5053105;28;20119;-69
2022/03/10 12:52:58;;;;;;;3.40;0.60;;;;;;;;;;5052856;28;20048;-69
2022/03/10 12:55:27;;;;;;;3.95;0.45;;;;;;;;;;5052785;28;20109;-69
2022/03/10 12:57:58;;;;;;;2.50;0.40;;;;;;;;;;5052655;28;20107;-69
2022/03/10 13:00:25;;;;;;;2.83;0.50;;;;;;;;;;5052600;28;20045;-69
2022/03/10 13:02:58;;;;;;;3.50;0.67;;;;;;;;;;5052806;28;20153;-69
2022/03/10 13:05:26;;;;;;;1.95;0.40;;;;;;;;;;5052525;28;20091;-69
2022/03/10 13:08:03;;;;;;;2.17;0.40;;;;;;;;;;5052650;28;20053;-70
2022/03/10 13:10:32;;;;;;;1.20;0.17;;;;;;;;;;5052462;28;20080;-69
2022/03/10 13:12:58;;;;;;;0.63;0.20;;;;;;;;;;5052316;28;20053;-69
2022/03/10 13:15:25;;;;;;;3.88;0.38;;;;;;;;;;5052561;28;20378;-69
2022/03/10 13:17:52;;;;;;;3.28;0.45;;;;;;;;;;5052627;28;20050;-69
2022/03/10 13:20:23;;;;;;;1.55;0.20;;;;;;;;;;5048868;28;20438;-69
2022/03/10 13:22:59;;;;;;;1.95;0.45;;;;;;;;;;5052545;28;20118;-69
2022/03/10 13:25:26;;;;;;;2.83;0.60;;;;;;;;;;5052150;28;20459;-69
2022/03/10 13:27:53;;;;;;;;;;;;;;;;;;5052856;28;20414;-69
2022/03/10 13:30:23;;;;;;;2.65;0.40;;;;;;;;;;5052291;28;19928;-69
2022/03/10 13:32:50;;;;;;;2.72;0.40;;;;;;;;;;5051298;28;20045;-69
2022/03/10 13:35:21;;;;;;;3.72;0.63;;;;;;;;;;5052003;28;20057;-69
2022/03/10 13:37:48;;;;;;;3.53;0.60;;;;;;;;;;5051951;28;20048;-69
2022/03/10 13:40:15;;;;;;;1.25;0.73;;;;;;;;;;5041973;28;20099;-69
2022/03/10 13:42:46;;;;;;;2.70;0.60;;;;;;;;;;5048433;28;20049;-69
2022/03/10 13:45:13;;;;;;;3.15;0.60;;;;;;;;;;5050671;28;20197;-69
2022/03/10 13:47:49;;;;;;;4.03;1.02;;;;;;;;;;5051802;28;20489;-69
2022/03/10 13:50:19;;;;;;;0.88;0.32;;;;;;;;;;5051744;28;20485;-69
2022/03/10 13:52:48;;;;;;;3.72;0.68;;;;;;;;;;5051941;28;20481;-69
2022/03/10 13:55:14;;;;;;;4.22;0.68;;;;;;;;;;5051969;28;20041;-69
2022/03/10 13:57:44;;;;;;;2.92;0.60;;;;;;;;;;5051976;28;20049;-69
2022/03/10 14:00:12;;;;;;;2.17;0.57;;;;;;;;;;5051780;28;20390;-69
2022/03/10 14:02:47;;;;;;;3.20;0.60;;;;;;;;;;5051689;28;20049;-69
2022/03/10 14:05:14;;;;;;;4.95;0.60;;;;;;;;;;5051636;28;20559;-69
2022/03/10 14:07:49;;;;;;;4.03;0.73;;;;;;;;;;5051316;28;20075;-69
2022/03/10 14:10:16;;;;;;;2.90;0.50;;;;;;;;;;5051674;28;20053;-69
2022/03/10 14:12:44;;;;;;;4.93;0.60;;;;;;;;;;5051584;28;20053;-69
2022/03/10 14:15:10;;;;;;;3.70;0.70;;;;;;;;;;5051819;28;20107;-69
2022/03/10 14:17:41;;;;;;;2.35;0.50;;;;;;;;;;5051394;28;20519;-69
2022/03/10 14:20:08;;;;;;;1.67;0.52;;;;;;;;;;5049383;28;20045;-69
2022/03/10 14:22:35;;;;;;;2.35;0.85;;;;;;;;;;5050544;28;20090;-69
2022/03/10 14:25:04;;;;;;;3.38;0.50;;;;;;;;;;5051670;28;20045;-69
2022/03/10 14:27:39;;;;;;;3.33;0.63;;;;;;;;;;5051637;28;20041;-69
2022/03/10 14:30:08;;;;;;;1.70;0.40;;;;;;;;;;5051617;28;20045;-69
2022/03/10 14:32:35;;;;;;;1.40;0.35;;;;;;;;;;5051488;28;20119;-69
2022/03/10 14:35:02;;;;;;;3.15;0.75;;;;;;;;;;5051606;28;20128;-69
2022/03/10 14:37:29;;;;;;;1.20;0.30;;;;;;;;;;5050007;28;20493;-69
2022/03/10 14:39:58;;;;;;;3.50;0.57;;;;;;;;;;5051316;28;20049;-69
2022/03/10 14:42:24;;;;;;;3.65;0.55;;;;;;;;;;5051455;28;20049;-69
2022/03/10 14:44:50;;;;;;;3.40;0.80;;;;;;;;;;5054356;28;20166;-69
2022/03/10 14:47:17;;;;;;;3.80;0.77;;;;;;;;;;5055529;28;20464;-69
2022/03/10 14:49:43;;;;;;;2.35;0.50;;;;;;;;;;5055369;28;20058;-69
2022/03/10 14:52:12;;;;;;;5.35;0.80;;;;;;;;;;5055016;28;20056;-69